sensor_id;sensor_type;location;lat;lon;timestamp;P1;durP1;ratioP1;P2;durP2;ratioP2
177;SDS011;77;48.792;9.032;2023-07-29T00:01:42;6.93;;;2.67;;
177;SDS011;77;48.792;9.032;2023-07-29T00:04:07;5.47;;;2.43;;
177;SDS011;77;48.792;9.032;2023-07-29T00:06:33;5.50;;;2.60;;
177;SDS011;77;48.792;9.032;2023-07-29T00:08:59;6.27;;;2.60;;
177;SDS011;77;48.792;9.032;2023-07-29T00:11:24;4.80;;;2.10;;
177;SDS011;77;48.792;9.032;2023-07-29T00:13:49;7.13;;;2.63;;
177;SDS011;77;48.792;9.032;2023-07-29T00:16:14;6.10;;;2.50;;
177;SDS011;77;48.792;9.032;2023-07-29T00:18:39;4.70;;;2.27;;
177;SDS011;77;48.792;9.032;2023-07-29T00:21:04;4.97;;;2.70;;
177;SDS011;77;48.792;9.032;2023-07-29T00:23:31;6.50;;;2.70;;
177;SDS011;77;48.792;9.032;2023-07-29T00:25:56;5.10;;;2.60;;
177;SDS011;77;48.792;9.032;2023-07-29T00:28:21;7.60;;;2.60;;
177;SDS011;77;48.792;9.032;2023-07-29T00:30:46;5.27;;;2.60;;
177;SDS011;77;48.792;9.032;2023-07-29T00:33:12;5.50;;;2.43;;
177;SDS011;77;48.792;9.032;2023-07-29T00:35:37;5.97;;;2.30;;
177;SDS011;77;48.792;9.032;2023-07-29T00:38:02;4.83;;;2.10;;
177;SDS011;77;48.792;9.032;2023-07-29T00:40:29;6.27;;;2.37;;
177;SDS011;77;48.792;9.032;2023-07-29T00:42:54;5.57;;;2.47;;
177;SDS011;77;48.792;9.032;2023-07-29T00:45:19;6.20;;;2.40;;
177;SDS011;77;48.792;9.032;2023-07-29T00:47:44;6.57;;;2.40;;
177;SDS011;77;48.792;9.032;2023-07-29T00:50:10;4.70;;;2.20;;
177;SDS011;77;48.792;9.032;2023-07-29T00:52:36;4.80;;;2.50;;
177;SDS011;77;48.792;9.032;2023-07-29T00:55:01;4.80;;;2.43;;
177;SDS011;77;48.792;9.032;2023-07-29T00:57:27;6.67;;;2.50;;
177;SDS011;77;48.792;9.032;2023-07-29T00:59:53;9.90;;;2.80;;
177;SDS011;77;48.792;9.032;2023-07-29T01:02:19;5.40;;;2.37;;
177;SDS011;77;48.792;9.032;2023-07-29T01:04:44;6.90;;;2.70;;
177;SDS011;77;48.792;9.032;2023-07-29T01:07:11;4.93;;;2.20;;
177;SDS011;77;48.792;9.032;2023-07-29T01:09:41;5.53;;;2.40;;
177;SDS011;77;48.792;9.032;2023-07-29T01:12:08;5.77;;;2.30;;
177;SDS011;77;48.792;9.032;2023-07-29T01:14:38;6.97;;;2.63;;
177;SDS011;77;48.792;9.032;2023-07-29T01:17:07;6.40;;;2.60;;
177;SDS011;77;48.792;9.032;2023-07-29T01:19:39;6.67;;;2.20;;
177;SDS011;77;48.792;9.032;2023-07-29T01:22:07;8.00;;;2.70;;
177;SDS011;77;48.792;9.032;2023-07-29T01:24:34;6.87;;;2.60;;
177;SDS011;77;48.792;9.032;2023-07-29T01:26:59;6.40;;;2.53;;
177;SDS011;77;48.792;9.032;2023-07-29T01:29:24;7.00;;;2.57;;
177;SDS011;77;48.792;9.032;2023-07-29T01:31:49;5.70;;;2.57;;
177;SDS011;77;48.792;9.032;2023-07-29T01:34:17;5.03;;;2.50;;
177;SDS011;77;48.792;9.032;2023-07-29T01:36:46;6.03;;;2.83;;
177;SDS011;77;48.792;9.032;2023-07-29T01:39:11;6.83;;;2.50;;
177;SDS011;77;48.792;9.032;2023-07-29T01:41:38;5.97;;;2.90;;
177;SDS011;77;48.792;9.032;2023-07-29T01:44:04;5.50;;;2.67;;
177;SDS011;77;48.792;9.032;2023-07-29T01:46:31;8.20;;;2.97;;
177;SDS011;77;48.792;9.032;2023-07-29T01:48:56;6.03;;;2.67;;
177;SDS011;77;48.792;9.032;2023-07-29T01:51:22;6.77;;;2.53;;
177;SDS011;77;48.792;9.032;2023-07-29T01:53:47;5.43;;;2.70;;
177;SDS011;77;48.792;9.032;2023-07-29T01:56:12;7.03;;;2.60;;
177;SDS011;77;48.792;9.032;2023-07-29T01:58:38;9.33;;;2.70;;
177;SDS011;77;48.792;9.032;2023-07-29T02:01:04;6.20;;;2.83;;
177;SDS011;77;48.792;9.032;2023-07-29T02:03:29;5.90;;;2.60;;
177;SDS011;77;48.792;9.032;2023-07-29T02:05:54;6.83;;;2.90;;
177;SDS011;77;48.792;9.032;2023-07-29T02:08:19;6.60;;;3.10;;
177;SDS011;77;48.792;9.032;2023-07-29T02:10:44;6.30;;;2.97;;
177;SDS011;77;48.792;9.032;2023-07-29T02:13:09;7.17;;;2.50;;
177;SDS011;77;48.792;9.032;2023-07-29T02:15:36;9.00;;;2.97;;
177;SDS011;77;48.792;9.032;2023-07-29T02:18:01;6.73;;;2.70;;
177;SDS011;77;48.792;9.032;2023-07-29T02:20:26;5.30;;;2.67;;
177;SDS011;77;48.792;9.032;2023-07-29T02:22:51;6.70;;;2.90;;
177;SDS011;77;48.792;9.032;2023-07-29T02:25:17;7.43;;;2.83;;
177;SDS011;77;48.792;9.032;2023-07-29T02:27:42;6.07;;;3.10;;
177;SDS011;77;48.792;9.032;2023-07-29T02:30:07;8.10;;;2.87;;
177;SDS011;77;48.792;9.032;2023-07-29T02:32:33;6.73;;;2.80;;
177;SDS011;77;48.792;9.032;2023-07-29T02:34:59;6.50;;;3.00;;
177;SDS011;77;48.792;9.032;2023-07-29T02:37:24;6.23;;;3.00;;
177;SDS011;77;48.792;9.032;2023-07-29T02:39:49;9.77;;;3.10;;
177;SDS011;77;48.792;9.032;2023-07-29T02:42:14;7.63;;;2.93;;
177;SDS011;77;48.792;9.032;2023-07-29T02:44:40;5.83;;;2.80;;
177;SDS011;77;48.792;9.032;2023-07-29T02:47:06;8.30;;;3.00;;
177;SDS011;77;48.792;9.032;2023-07-29T02:49:32;6.93;;;2.90;;
177;SDS011;77;48.792;9.032;2023-07-29T02:51:57;6.10;;;3.00;;
177;SDS011;77;48.792;9.032;2023-07-29T02:54:22;6.63;;;2.97;;
177;SDS011;77;48.792;9.032;2023-07-29T02:56:49;8.17;;;3.07;;
177;SDS011;77;48.792;9.032;2023-07-29T02:59:14;6.60;;;2.90;;
177;SDS011;77;48.792;9.032;2023-07-29T03:01:39;6.73;;;2.90;;
177;SDS011;77;48.792;9.032;2023-07-29T03:04:05;7.10;;;3.00;;
177;SDS011;77;48.792;9.032;2023-07-29T03:06:31;6.77;;;2.93;;
177;SDS011;77;48.792;9.032;2023-07-29T03:08:56;6.40;;;3.23;;
177;SDS011;77;48.792;9.032;2023-07-29T03:11:21;11.70;;;3.37;;
177;SDS011;77;48.792;9.032;2023-07-29T03:13:46;7.10;;;3.30;;
177;SDS011;77;48.792;9.032;2023-07-29T03:16:12;6.57;;;2.90;;
177;SDS011;77;48.792;9.032;2023-07-29T03:18:37;9.43;;;3.00;;
177;SDS011;77;48.792;9.032;2023-07-29T03:21:03;6.53;;;3.00;;
177;SDS011;77;48.792;9.032;2023-07-29T03:23:29;10.80;;;3.20;;
177;SDS011;77;48.792;9.032;2023-07-29T03:25:55;7.07;;;3.27;;
177;SDS011;77;48.792;9.032;2023-07-29T03:28:20;7.90;;;3.47;;
177;SDS011;77;48.792;9.032;2023-07-29T03:30:45;7.93;;;3.33;;
177;SDS011;77;48.792;9.032;2023-07-29T03:33:10;6.17;;;3.00;;
177;SDS011;77;48.792;9.032;2023-07-29T03:35:36;6.07;;;3.30;;
177;SDS011;77;48.792;9.032;2023-07-29T03:38:01;7.00;;;3.27;;
177;SDS011;77;48.792;9.032;2023-07-29T03:40:27;9.53;;;3.53;;
177;SDS011;77;48.792;9.032;2023-07-29T03:42:52;7.80;;;3.53;;
177;SDS011;77;48.792;9.032;2023-07-29T03:45:18;5.73;;;3.10;;
177;SDS011;77;48.792;9.032;2023-07-29T03:47:43;7.23;;;3.40;;
177;SDS011;77;48.792;9.032;2023-07-29T03:50:08;7.33;;;3.17;;
177;SDS011;77;48.792;9.032;2023-07-29T03:52:33;6.60;;;3.23;;
177;SDS011;77;48.792;9.032;2023-07-29T03:54:59;7.33;;;3.13;;
177;SDS011;77;48.792;9.032;2023-07-29T03:57:25;7.60;;;3.60;;
177;SDS011;77;48.792;9.032;2023-07-29T03:59:50;8.50;;;3.43;;
177;SDS011;77;48.792;9.032;2023-07-29T04:02:15;7.30;;;3.60;;
177;SDS011;77;48.792;9.032;2023-07-29T04:04:41;9.07;;;3.57;;
177;SDS011;77;48.792;9.032;2023-07-29T04:07:06;11.30;;;3.53;;
177;SDS011;77;48.792;9.032;2023-07-29T04:09:31;9.57;;;3.90;;
177;SDS011;77;48.792;9.032;2023-07-29T04:11:56;7.73;;;3.77;;
177;SDS011;77;48.792;9.032;2023-07-29T04:14:23;11.57;;;3.70;;
177;SDS011;77;48.792;9.032;2023-07-29T04:16:48;7.23;;;3.50;;
177;SDS011;77;48.792;9.032;2023-07-29T04:19:13;8.43;;;3.60;;
177;SDS011;77;48.792;9.032;2023-07-29T04:21:38;7.77;;;3.53;;
177;SDS011;77;48.792;9.032;2023-07-29T04:24:03;8.60;;;3.77;;
177;SDS011;77;48.792;9.032;2023-07-29T04:26:29;6.17;;;3.37;;
177;SDS011;77;48.792;9.032;2023-07-29T04:28:54;7.97;;;3.60;;
177;SDS011;77;48.792;9.032;2023-07-29T04:31:20;8.30;;;3.50;;
177;SDS011;77;48.792;9.032;2023-07-29T04:33:45;6.43;;;3.43;;
177;SDS011;77;48.792;9.032;2023-07-29T04:36:11;8.60;;;3.80;;
177;SDS011;77;48.792;9.032;2023-07-29T04:38:36;8.83;;;4.03;;
177;SDS011;77;48.792;9.032;2023-07-29T04:41:02;9.33;;;4.13;;
177;SDS011;77;48.792;9.032;2023-07-29T04:43:27;7.43;;;3.50;;
177;SDS011;77;48.792;9.032;2023-07-29T04:45:52;11.77;;;4.10;;
177;SDS011;77;48.792;9.032;2023-07-29T04:48:19;8.97;;;3.90;;
177;SDS011;77;48.792;9.032;2023-07-29T04:50:44;11.13;;;3.83;;
177;SDS011;77;48.792;9.032;2023-07-29T04:53:09;8.33;;;3.80;;
177;SDS011;77;48.792;9.032;2023-07-29T04:55:34;12.33;;;4.17;;
177;SDS011;77;48.792;9.032;2023-07-29T04:58:00;9.60;;;3.90;;
177;SDS011;77;48.792;9.032;2023-07-29T05:00:25;8.90;;;3.60;;
177;SDS011;77;48.792;9.032;2023-07-29T05:02:50;8.17;;;3.50;;
177;SDS011;77;48.792;9.032;2023-07-29T05:05:16;7.80;;;3.93;;
177;SDS011;77;48.792;9.032;2023-07-29T05:07:42;7.20;;;3.70;;
177;SDS011;77;48.792;9.032;2023-07-29T05:10:07;8.20;;;4.00;;
177;SDS011;77;48.792;9.032;2023-07-29T05:12:32;9.17;;;4.00;;
177;SDS011;77;48.792;9.032;2023-07-29T05:14:58;7.90;;;3.70;;
177;SDS011;77;48.792;9.032;2023-07-29T05:17:23;7.30;;;3.83;;
177;SDS011;77;48.792;9.032;2023-07-29T05:19:48;7.70;;;3.60;;
177;SDS011;77;48.792;9.032;2023-07-29T05:22:14;7.87;;;3.37;;
177;SDS011;77;48.792;9.032;2023-07-29T05:24:40;8.13;;;3.43;;
177;SDS011;77;48.792;9.032;2023-07-29T05:27:05;6.10;;;3.17;;
177;SDS011;77;48.792;9.032;2023-07-29T05:29:30;7.60;;;3.33;;
177;SDS011;77;48.792;9.032;2023-07-29T05:31:55;6.03;;;3.23;;
177;SDS011;77;48.792;9.032;2023-07-29T05:34:20;7.50;;;3.30;;
177;SDS011;77;48.792;9.032;2023-07-29T05:36:46;9.23;;;3.20;;
177;SDS011;77;48.792;9.032;2023-07-29T05:39:13;7.27;;;3.30;;
177;SDS011;77;48.792;9.032;2023-07-29T05:41:38;7.30;;;3.67;;
177;SDS011;77;48.792;9.032;2023-07-29T05:44:04;7.20;;;3.30;;
177;SDS011;77;48.792;9.032;2023-07-29T05:46:29;9.00;;;3.77;;
177;SDS011;77;48.792;9.032;2023-07-29T05:48:54;10.00;;;3.20;;
177;SDS011;77;48.792;9.032;2023-07-29T05:51:19;7.77;;;3.47;;
177;SDS011;77;48.792;9.032;2023-07-29T05:53:44;9.37;;;3.30;;
177;SDS011;77;48.792;9.032;2023-07-29T05:56:11;6.90;;;3.13;;
177;SDS011;77;48.792;9.032;2023-07-29T05:58:36;7.07;;;3.30;;
177;SDS011;77;48.792;9.032;2023-07-29T06:01:01;6.83;;;3.00;;
177;SDS011;77;48.792;9.032;2023-07-29T06:03:26;5.83;;;3.00;;
177;SDS011;77;48.792;9.032;2023-07-29T06:05:52;7.43;;;3.13;;
177;SDS011;77;48.792;9.032;2023-07-29T06:08:17;6.30;;;3.07;;
177;SDS011;77;48.792;9.032;2023-07-29T06:10:42;7.50;;;2.90;;
177;SDS011;77;48.792;9.032;2023-07-29T06:13:08;6.67;;;3.47;;
177;SDS011;77;48.792;9.032;2023-07-29T06:15:34;11.53;;;3.20;;
177;SDS011;77;48.792;9.032;2023-07-29T06:17:59;10.00;;;3.73;;
177;SDS011;77;48.792;9.032;2023-07-29T06:20:24;9.07;;;3.33;;
177;SDS011;77;48.792;9.032;2023-07-29T06:22:49;6.33;;;3.07;;
177;SDS011;77;48.792;9.032;2023-07-29T06:25:14;11.60;;;3.30;;
177;SDS011;77;48.792;9.032;2023-07-29T06:27:40;6.67;;;3.03;;
177;SDS011;77;48.792;9.032;2023-07-29T06:30:07;6.27;;;3.07;;
177;SDS011;77;48.792;9.032;2023-07-29T06:32:32;6.57;;;3.17;;
177;SDS011;77;48.792;9.032;2023-07-29T06:34:57;6.87;;;3.10;;
177;SDS011;77;48.792;9.032;2023-07-29T06:37:22;8.13;;;3.20;;
177;SDS011;77;48.792;9.032;2023-07-29T06:39:47;7.30;;;2.97;;
177;SDS011;77;48.792;9.032;2023-07-29T06:42:12;7.47;;;2.97;;
177;SDS011;77;48.792;9.032;2023-07-29T06:44:38;6.00;;;2.87;;
177;SDS011;77;48.792;9.032;2023-07-29T06:47:05;7.00;;;3.07;;
177;SDS011;77;48.792;9.032;2023-07-29T06:49:30;6.50;;;2.77;;
177;SDS011;77;48.792;9.032;2023-07-29T06:51:55;5.60;;;2.60;;
177;SDS011;77;48.792;9.032;2023-07-29T06:54:23;5.90;;;3.10;;
177;SDS011;77;48.792;9.032;2023-07-29T06:56:48;8.17;;;2.73;;
177;SDS011;77;48.792;9.032;2023-07-29T06:59:14;5.10;;;2.80;;
177;SDS011;77;48.792;9.032;2023-07-29T07:01:39;9.90;;;2.83;;
177;SDS011;77;48.792;9.032;2023-07-29T07:04:05;5.83;;;2.90;;
177;SDS011;77;48.792;9.032;2023-07-29T07:06:30;6.30;;;3.00;;
177;SDS011;77;48.792;9.032;2023-07-29T07:08:56;5.57;;;2.40;;
177;SDS011;77;48.792;9.032;2023-07-29T07:11:21;5.90;;;2.80;;
177;SDS011;77;48.792;9.032;2023-07-29T07:13:46;6.10;;;2.87;;
177;SDS011;77;48.792;9.032;2023-07-29T07:16:11;7.00;;;3.10;;
177;SDS011;77;48.792;9.032;2023-07-29T07:18:36;6.77;;;3.03;;
177;SDS011;77;48.792;9.032;2023-07-29T07:21:03;5.60;;;2.83;;
177;SDS011;77;48.792;9.032;2023-07-29T07:23:28;6.60;;;2.80;;
177;SDS011;77;48.792;9.032;2023-07-29T07:25:53;5.73;;;2.80;;
177;SDS011;77;48.792;9.032;2023-07-29T07:28:18;6.07;;;2.80;;
177;SDS011;77;48.792;9.032;2023-07-29T07:30:43;5.07;;;2.50;;
177;SDS011;77;48.792;9.032;2023-07-29T07:33:09;5.60;;;2.87;;
177;SDS011;77;48.792;9.032;2023-07-29T07:35:34;5.30;;;2.60;;
177;SDS011;77;48.792;9.032;2023-07-29T07:38:00;5.17;;;2.63;;
177;SDS011;77;48.792;9.032;2023-07-29T07:40:26;5.50;;;2.50;;
177;SDS011;77;48.792;9.032;2023-07-29T07:42:51;6.27;;;2.37;;
177;SDS011;77;48.792;9.032;2023-07-29T07:45:16;5.90;;;2.60;;
177;SDS011;77;48.792;9.032;2023-07-29T07:47:41;6.97;;;2.77;;
177;SDS011;77;48.792;9.032;2023-07-29T07:50:06;5.33;;;2.27;;
177;SDS011;77;48.792;9.032;2023-07-29T07:52:32;7.40;;;2.50;;
177;SDS011;77;48.792;9.032;2023-07-29T07:54:58;5.30;;;2.40;;
177;SDS011;77;48.792;9.032;2023-07-29T07:57:23;5.00;;;2.30;;
177;SDS011;77;48.792;9.032;2023-07-29T07:59:48;5.93;;;2.10;;
177;SDS011;77;48.792;9.032;2023-07-29T08:02:14;6.43;;;2.27;;
177;SDS011;77;48.792;9.032;2023-07-29T08:04:39;4.90;;;2.20;;
177;SDS011;77;48.792;9.032;2023-07-29T08:07:04;5.67;;;2.43;;
177;SDS011;77;48.792;9.032;2023-07-29T08:09:29;4.93;;;2.10;;
177;SDS011;77;48.792;9.032;2023-07-29T08:11:56;5.40;;;2.17;;
177;SDS011;77;48.792;9.032;2023-07-29T08:14:21;4.70;;;2.20;;
177;SDS011;77;48.792;9.032;2023-07-29T08:16:46;4.90;;;2.10;;
177;SDS011;77;48.792;9.032;2023-07-29T08:19:11;5.10;;;2.27;;
177;SDS011;77;48.792;9.032;2023-07-29T08:21:37;6.17;;;2.20;;
177;SDS011;77;48.792;9.032;2023-07-29T08:24:02;4.97;;;2.03;;
177;SDS011;77;48.792;9.032;2023-07-29T08:26:27;6.73;;;2.37;;
177;SDS011;77;48.792;9.032;2023-07-29T08:28:53;4.70;;;2.10;;
177;SDS011;77;48.792;9.032;2023-07-29T08:31:19;5.50;;;2.50;;
177;SDS011;77;48.792;9.032;2023-07-29T08:33:44;4.70;;;2.27;;
177;SDS011;77;48.792;9.032;2023-07-29T08:36:09;5.30;;;2.27;;
177;SDS011;77;48.792;9.032;2023-07-29T08:38:34;5.20;;;2.33;;
177;SDS011;77;48.792;9.032;2023-07-29T08:41:03;4.80;;;2.00;;
177;SDS011;77;48.792;9.032;2023-07-29T08:43:29;4.97;;;2.37;;
177;SDS011;77;48.792;9.032;2023-07-29T08:45:57;5.70;;;2.30;;
177;SDS011;77;48.792;9.032;2023-07-29T08:48:23;5.73;;;2.50;;
177;SDS011;77;48.792;9.032;2023-07-29T08:50:52;5.00;;;2.30;;
177;SDS011;77;48.792;9.032;2023-07-29T08:53:18;5.67;;;2.10;;
177;SDS011;77;48.792;9.032;2023-07-29T08:55:44;5.50;;;2.30;;
177;SDS011;77;48.792;9.032;2023-07-29T08:58:09;5.90;;;2.40;;
177;SDS011;77;48.792;9.032;2023-07-29T09:00:34;4.80;;;2.10;;
177;SDS011;77;48.792;9.032;2023-07-29T09:03:01;4.63;;;2.17;;
177;SDS011;77;48.792;9.032;2023-07-29T09:05:26;5.27;;;2.30;;
177;SDS011;77;48.792;9.032;2023-07-29T09:07:51;4.73;;;1.93;;
177;SDS011;77;48.792;9.032;2023-07-29T09:10:20;5.87;;;2.40;;
177;SDS011;77;48.792;9.032;2023-07-29T09:12:46;4.73;;;2.10;;
177;SDS011;77;48.792;9.032;2023-07-29T09:15:11;4.60;;;2.10;;
177;SDS011;77;48.792;9.032;2023-07-29T09:17:36;5.10;;;2.40;;
177;SDS011;77;48.792;9.032;2023-07-29T09:20:03;5.83;;;2.37;;
177;SDS011;77;48.792;9.032;2023-07-29T09:22:28;5.20;;;2.40;;
177;SDS011;77;48.792;9.032;2023-07-29T09:24:53;4.87;;;2.37;;
177;SDS011;77;48.792;9.032;2023-07-29T09:27:24;5.23;;;2.17;;
177;SDS011;77;48.792;9.032;2023-07-29T09:29:50;5.13;;;2.40;;
177;SDS011;77;48.792;9.032;2023-07-29T09:32:18;7.50;;;2.40;;
177;SDS011;77;48.792;9.032;2023-07-29T09:34:43;4.67;;;2.30;;
177;SDS011;77;48.792;9.032;2023-07-29T09:37:12;4.30;;;2.13;;
177;SDS011;77;48.792;9.032;2023-07-29T09:39:40;4.97;;;2.40;;
177;SDS011;77;48.792;9.032;2023-07-29T09:42:09;5.00;;;2.47;;
177;SDS011;77;48.792;9.032;2023-07-29T09:44:36;4.97;;;2.60;;
177;SDS011;77;48.792;9.032;2023-07-29T09:47:01;6.23;;;2.63;;
177;SDS011;77;48.792;9.032;2023-07-29T09:49:26;5.03;;;2.60;;
177;SDS011;77;48.792;9.032;2023-07-29T09:51:51;6.10;;;2.60;;
177;SDS011;77;48.792;9.032;2023-07-29T09:54:21;5.37;;;2.57;;
177;SDS011;77;48.792;9.032;2023-07-29T09:56:47;6.60;;;2.60;;
177;SDS011;77;48.792;9.032;2023-07-29T09:59:12;7.00;;;2.60;;
177;SDS011;77;48.792;9.032;2023-07-29T10:01:37;4.97;;;2.40;;
177;SDS011;77;48.792;9.032;2023-07-29T10:04:02;5.63;;;2.93;;
177;SDS011;77;48.792;9.032;2023-07-29T10:06:28;4.50;;;2.40;;
177;SDS011;77;48.792;9.032;2023-07-29T10:08:53;8.13;;;2.63;;
177;SDS011;77;48.792;9.032;2023-07-29T10:11:21;6.50;;;2.70;;
177;SDS011;77;48.792;9.032;2023-07-29T10:13:46;13.00;;;2.57;;
177;SDS011;77;48.792;9.032;2023-07-29T10:16:12;6.03;;;2.93;;
177;SDS011;77;48.792;9.032;2023-07-29T10:18:38;5.47;;;2.50;;
177;SDS011;77;48.792;9.032;2023-07-29T10:21:04;4.97;;;2.30;;
177;SDS011;77;48.792;9.032;2023-07-29T10:23:32;5.20;;;2.50;;
177;SDS011;77;48.792;9.032;2023-07-29T10:25:59;4.57;;;2.30;;
177;SDS011;77;48.792;9.032;2023-07-29T10:28:28;4.83;;;2.30;;
177;SDS011;77;48.792;9.032;2023-07-29T10:30:54;4.60;;;2.23;;
177;SDS011;77;48.792;9.032;2023-07-29T10:33:19;4.43;;;2.03;;
177;SDS011;77;48.792;9.032;2023-07-29T10:35:44;4.30;;;2.20;;
177;SDS011;77;48.792;9.032;2023-07-29T10:38:10;4.60;;;2.20;;
177;SDS011;77;48.792;9.032;2023-07-29T10:40:45;6.57;;;2.20;;
177;SDS011;77;48.792;9.032;2023-07-29T10:43:11;5.47;;;2.40;;
177;SDS011;77;48.792;9.032;2023-07-29T10:45:38;4.80;;;2.40;;
177;SDS011;77;48.792;9.032;2023-07-29T10:48:05;4.50;;;2.20;;
177;SDS011;77;48.792;9.032;2023-07-29T10:50:30;5.17;;;2.53;;
177;SDS011;77;48.792;9.032;2023-07-29T10:52:55;4.80;;;2.30;;
177;SDS011;77;48.792;9.032;2023-07-29T10:55:25;4.87;;;2.43;;
177;SDS011;77;48.792;9.032;2023-07-29T10:57:50;5.00;;;2.47;;
177;SDS011;77;48.792;9.032;2023-07-29T11:00:15;5.87;;;2.37;;
177;SDS011;77;48.792;9.032;2023-07-29T11:02:42;4.57;;;2.50;;
177;SDS011;77;48.792;9.032;2023-07-29T11:05:16;5.50;;;2.40;;
177;SDS011;77;48.792;9.032;2023-07-29T11:07:44;4.73;;;2.27;;
177;SDS011;77;48.792;9.032;2023-07-29T11:10:11;4.57;;;2.47;;
177;SDS011;77;48.792;9.032;2023-07-29T11:12:37;4.87;;;2.30;;
177;SDS011;77;48.792;9.032;2023-07-29T11:15:03;8.57;;;2.47;;
177;SDS011;77;48.792;9.032;2023-07-29T11:17:29;4.17;;;2.13;;
177;SDS011;77;48.792;9.032;2023-07-29T11:19:56;4.00;;;2.30;;
177;SDS011;77;48.792;9.032;2023-07-29T11:22:23;4.30;;;2.30;;
177;SDS011;77;48.792;9.032;2023-07-29T11:24:48;4.50;;;2.50;;
177;SDS011;77;48.792;9.032;2023-07-29T11:27:14;4.00;;;2.20;;
177;SDS011;77;48.792;9.032;2023-07-29T11:29:39;4.00;;;2.20;;
177;SDS011;77;48.792;9.032;2023-07-29T11:32:04;8.13;;;2.60;;
177;SDS011;77;48.792;9.032;2023-07-29T11:34:31;4.70;;;2.40;;
177;SDS011;77;48.792;9.032;2023-07-29T11:36:57;4.60;;;2.20;;
177;SDS011;77;48.792;9.032;2023-07-29T11:39:22;5.00;;;2.40;;
177;SDS011;77;48.792;9.032;2023-07-29T11:41:48;6.60;;;2.30;;
177;SDS011;77;48.792;9.032;2023-07-29T11:44:16;4.43;;;2.30;;
177;SDS011;77;48.792;9.032;2023-07-29T11:46:41;4.87;;;2.47;;
177;SDS011;77;48.792;9.032;2023-07-29T11:49:06;6.57;;;2.57;;
177;SDS011;77;48.792;9.032;2023-07-29T11:51:31;7.23;;;2.27;;
177;SDS011;77;48.792;9.032;2023-07-29T11:53:58;4.07;;;2.30;;
177;SDS011;77;48.792;9.032;2023-07-29T11:56:23;4.33;;;2.27;;
177;SDS011;77;48.792;9.032;2023-07-29T11:58:48;4.20;;;2.30;;
177;SDS011;77;48.792;9.032;2023-07-29T12:01:14;4.07;;;2.40;;
177;SDS011;77;48.792;9.032;2023-07-29T12:03:39;4.90;;;2.20;;
177;SDS011;77;48.792;9.032;2023-07-29T12:06:04;5.13;;;2.40;;
177;SDS011;77;48.792;9.032;2023-07-29T12:08:29;4.80;;;2.60;;
177;SDS011;77;48.792;9.032;2023-07-29T12:10:56;5.53;;;2.87;;
177;SDS011;77;48.792;9.032;2023-07-29T12:13:23;6.20;;;2.40;;
177;SDS011;77;48.792;9.032;2023-07-29T12:15:48;4.60;;;2.83;;
177;SDS011;77;48.792;9.032;2023-07-29T12:18:13;5.07;;;2.60;;
177;SDS011;77;48.792;9.032;2023-07-29T12:20:39;5.40;;;2.80;;
177;SDS011;77;48.792;9.032;2023-07-29T12:23:04;6.70;;;2.90;;
177;SDS011;77;48.792;9.032;2023-07-29T12:25:29;5.90;;;2.90;;
177;SDS011;77;48.792;9.032;2023-07-29T12:27:56;4.60;;;2.53;;
177;SDS011;77;48.792;9.032;2023-07-29T12:30:21;4.80;;;2.70;;
177;SDS011;77;48.792;9.032;2023-07-29T12:32:47;5.37;;;2.60;;
177;SDS011;77;48.792;9.032;2023-07-29T12:35:12;6.20;;;2.60;;
177;SDS011;77;48.792;9.032;2023-07-29T12:37:37;6.73;;;3.00;;
177;SDS011;77;48.792;9.032;2023-07-29T12:40:03;4.90;;;2.50;;
177;SDS011;77;48.792;9.032;2023-07-29T12:42:28;5.73;;;2.70;;
177;SDS011;77;48.792;9.032;2023-07-29T12:44:55;4.90;;;2.50;;
177;SDS011;77;48.792;9.032;2023-07-29T12:47:20;4.83;;;2.50;;
177;SDS011;77;48.792;9.032;2023-07-29T12:49:45;7.43;;;2.80;;
177;SDS011;77;48.792;9.032;2023-07-29T12:52:10;4.90;;;2.60;;
177;SDS011;77;48.792;9.032;2023-07-29T12:54:35;5.47;;;2.70;;
177;SDS011;77;48.792;9.032;2023-07-29T12:57:00;5.07;;;2.63;;
177;SDS011;77;48.792;9.032;2023-07-29T12:59:25;5.37;;;2.63;;
177;SDS011;77;48.792;9.032;2023-07-29T13:01:52;6.20;;;2.70;;
177;SDS011;77;48.792;9.032;2023-07-29T13:04:17;5.37;;;2.53;;
177;SDS011;77;48.792;9.032;2023-07-29T13:06:42;5.90;;;2.73;;
177;SDS011;77;48.792;9.032;2023-07-29T13:09:08;6.00;;;2.70;;
177;SDS011;77;48.792;9.032;2023-07-29T13:11:33;5.20;;;2.53;;
177;SDS011;77;48.792;9.032;2023-07-29T13:13:58;5.57;;;2.57;;
177;SDS011;77;48.792;9.032;2023-07-29T13:16:23;5.00;;;2.43;;
177;SDS011;77;48.792;9.032;2023-07-29T13:18:50;5.43;;;2.67;;
177;SDS011;77;48.792;9.032;2023-07-29T13:21:15;5.10;;;2.70;;
177;SDS011;77;48.792;9.032;2023-07-29T13:23:40;4.93;;;2.60;;
177;SDS011;77;48.792;9.032;2023-07-29T13:26:05;5.37;;;2.77;;
177;SDS011;77;48.792;9.032;2023-07-29T13:28:30;5.40;;;2.77;;
177;SDS011;77;48.792;9.032;2023-07-29T13:30:56;5.50;;;2.90;;
177;SDS011;77;48.792;9.032;2023-07-29T13:33:21;4.60;;;2.40;;
177;SDS011;77;48.792;9.032;2023-07-29T13:35:47;8.10;;;2.80;;
177;SDS011;77;48.792;9.032;2023-07-29T13:38:12;5.23;;;2.80;;
177;SDS011;77;48.792;9.032;2023-07-29T13:40:38;5.23;;;2.83;;
177;SDS011;77;48.792;9.032;2023-07-29T13:43:03;5.37;;;2.63;;
177;SDS011;77;48.792;9.032;2023-07-29T13:45:28;4.80;;;2.60;;
177;SDS011;77;48.792;9.032;2023-07-29T13:47:53;6.03;;;2.60;;
177;SDS011;77;48.792;9.032;2023-07-29T13:50:18;6.20;;;2.73;;
177;SDS011;77;48.792;9.032;2023-07-29T13:52:45;5.20;;;2.50;;
177;SDS011;77;48.792;9.032;2023-07-29T13:55:10;5.10;;;2.60;;
177;SDS011;77;48.792;9.032;2023-07-29T13:57:35;4.90;;;2.53;;
177;SDS011;77;48.792;9.032;2023-07-29T14:00:01;4.90;;;2.63;;
177;SDS011;77;48.792;9.032;2023-07-29T14:02:26;5.07;;;2.50;;
177;SDS011;77;48.792;9.032;2023-07-29T14:04:51;5.80;;;2.60;;
177;SDS011;77;48.792;9.032;2023-07-29T14:07:16;4.63;;;2.43;;
177;SDS011;77;48.792;9.032;2023-07-29T14:09:43;5.30;;;2.63;;
177;SDS011;77;48.792;9.032;2023-07-29T14:12:08;5.77;;;2.63;;
177;SDS011;77;48.792;9.032;2023-07-29T14:14:33;4.90;;;2.40;;
177;SDS011;77;48.792;9.032;2023-07-29T14:16:58;7.73;;;2.50;;
177;SDS011;77;48.792;9.032;2023-07-29T14:19:23;5.60;;;2.57;;
177;SDS011;77;48.792;9.032;2023-07-29T14:21:48;5.33;;;2.70;;
177;SDS011;77;48.792;9.032;2023-07-29T14:24:14;4.93;;;2.67;;
177;SDS011;77;48.792;9.032;2023-07-29T14:26:40;4.90;;;2.67;;
177;SDS011;77;48.792;9.032;2023-07-29T14:29:05;8.23;;;2.70;;
177;SDS011;77;48.792;9.032;2023-07-29T14:31:30;6.03;;;2.70;;
177;SDS011;77;48.792;9.032;2023-07-29T14:33:56;6.70;;;3.00;;
177;SDS011;77;48.792;9.032;2023-07-29T14:36:21;7.80;;;2.90;;
177;SDS011;77;48.792;9.032;2023-07-29T14:38:46;4.90;;;2.70;;
177;SDS011;77;48.792;9.032;2023-07-29T14:41:12;6.70;;;2.53;;
177;SDS011;77;48.792;9.032;2023-07-29T14:43:39;5.80;;;3.03;;
177;SDS011;77;48.792;9.032;2023-07-29T14:46:05;4.80;;;2.70;;
177;SDS011;77;48.792;9.032;2023-07-29T14:48:30;5.10;;;3.10;;
177;SDS011;77;48.792;9.032;2023-07-29T14:50:55;5.30;;;3.07;;
177;SDS011;77;48.792;9.032;2023-07-29T14:53:21;4.90;;;2.77;;
177;SDS011;77;48.792;9.032;2023-07-29T14:55:46;5.83;;;3.00;;
177;SDS011;77;48.792;9.032;2023-07-29T14:58:11;5.77;;;2.90;;
177;SDS011;77;48.792;9.032;2023-07-29T15:00:37;5.33;;;3.20;;
177;SDS011;77;48.792;9.032;2023-07-29T15:03:03;6.23;;;3.20;;
177;SDS011;77;48.792;9.032;2023-07-29T15:05:28;5.47;;;3.13;;
177;SDS011;77;48.792;9.032;2023-07-29T15:07:53;6.13;;;3.20;;
177;SDS011;77;48.792;9.032;2023-07-29T15:10:18;5.40;;;2.73;;
177;SDS011;77;48.792;9.032;2023-07-29T15:12:43;5.67;;;2.60;;
177;SDS011;77;48.792;9.032;2023-07-29T15:15:09;5.23;;;2.80;;
177;SDS011;77;48.792;9.032;2023-07-29T15:17:35;5.40;;;3.10;;
177;SDS011;77;48.792;9.032;2023-07-29T15:20:01;4.90;;;2.90;;
177;SDS011;77;48.792;9.032;2023-07-29T15:22:26;4.90;;;2.80;;
177;SDS011;77;48.792;9.032;2023-07-29T15:24:51;5.50;;;2.77;;
177;SDS011;77;48.792;9.032;2023-07-29T15:27:16;5.00;;;2.97;;
177;SDS011;77;48.792;9.032;2023-07-29T15:29:41;5.80;;;3.00;;
177;SDS011;77;48.792;9.032;2023-07-29T15:32:07;6.43;;;2.60;;
177;SDS011;77;48.792;9.032;2023-07-29T15:34:33;4.90;;;2.80;;
177;SDS011;77;48.792;9.032;2023-07-29T15:36:58;9.80;;;4.53;;
177;SDS011;77;48.792;9.032;2023-07-29T15:39:24;12.70;;;6.90;;
177;SDS011;77;48.792;9.032;2023-07-29T15:41:49;5.80;;;3.60;;
177;SDS011;77;48.792;9.032;2023-07-29T15:44:14;5.20;;;3.13;;
177;SDS011;77;48.792;9.032;2023-07-29T15:46:39;5.30;;;2.80;;
177;SDS011;77;48.792;9.032;2023-07-29T15:49:04;5.30;;;3.20;;